sensor_id;sensor_type;location;lat;lon;timestamp;P1;durP1;ratioP1;P2;durP2;ratioP2
4232;SDS011;2130;48.472;11.934;2024-03-23T00:54:24;6.00;;;1.67;;
4232;SDS011;2130;48.472;11.934;2024-03-23T00:56:51;7.63;;;1.50;;
4232;SDS011;2130;48.472;11.934;2024-03-23T00:59:20;5.40;;;1.80;;
4232;SDS011;2130;48.472;11.934;2024-03-23T01:01:50;5.90;;;1.87;;
4232;SDS011;2130;48.472;11.934;2024-03-23T01:04:18;5.70;;;1.40;;
4232;SDS011;2130;48.472;11.934;2024-03-23T01:06:46;6.27;;;1.80;;
4232;SDS011;2130;48.472;11.934;2024-03-23T01:09:15;6.63;;;1.90;;
4232;SDS011;2130;48.472;11.934;2024-03-23T01:11:42;5.10;;;1.67;;
4232;SDS011;2130;48.472;11.934;2024-03-23T01:14:10;5.87;;;1.60;;
4232;SDS011;2130;48.472;11.934;2024-03-23T01:16:37;6.40;;;1.60;;
4232;SDS011;2130;48.472;11.934;2024-03-23T01:19:05;5.40;;;1.80;;
4232;SDS011;2130;48.472;11.934;2024-03-23T01:21:32;4.90;;;1.50;;
4232;SDS011;2130;48.472;11.934;2024-03-23T01:24:02;5.40;;;1.70;;
4232;SDS011;2130;48.472;11.934;2024-03-23T01:26:29;5.30;;;1.63;;
4232;SDS011;2130;48.472;11.934;2024-03-23T01:28:58;6.43;;;2.10;;
4232;SDS011;2130;48.472;11.934;2024-03-23T01:31:25;7.13;;;2.10;;
4232;SDS011;2130;48.472;11.934;2024-03-23T01:33:53;6.23;;;1.90;;
4232;SDS011;2130;48.472;11.934;2024-03-23T01:36:20;5.90;;;1.57;;
4232;SDS011;2130;48.472;11.934;2024-03-23T01:38:48;5.63;;;1.83;;
4232;SDS011;2130;48.472;11.934;2024-03-23T01:41:17;6.30;;;2.00;;
4232;SDS011;2130;48.472;11.934;2024-03-23T01:43:45;6.83;;;2.03;;
4232;SDS011;2130;48.472;11.934;2024-03-23T01:46:12;5.47;;;1.53;;
4232;SDS011;2130;48.472;11.934;2024-03-23T01:48:40;5.27;;;1.53;;
4232;SDS011;2130;48.472;11.934;2024-03-23T01:51:07;6.30;;;1.93;;
4232;SDS011;2130;48.472;11.934;2024-03-23T01:53:36;7.53;;;2.10;;
4232;SDS011;2130;48.472;11.934;2024-03-23T01:56:03;9.10;;;2.03;;
4232;SDS011;2130;48.472;11.934;2024-03-23T01:58:32;7.33;;;1.87;;
4232;SDS011;2130;48.472;11.934;2024-03-23T02:00:59;5.83;;;1.83;;
4232;SDS011;2130;48.472;11.934;2024-03-23T02:03:28;5.70;;;1.60;;
4232;SDS011;2130;48.472;11.934;2024-03-23T02:05:55;5.73;;;1.83;;
4232;SDS011;2130;48.472;11.934;2024-03-23T02:08:23;6.60;;;2.07;;
4232;SDS011;2130;48.472;11.934;2024-03-23T02:10:50;5.77;;;1.90;;
4232;SDS011;2130;48.472;11.934;2024-03-23T02:13:18;5.83;;;2.03;;
4232;SDS011;2130;48.472;11.934;2024-03-23T02:15:47;6.47;;;1.97;;
4232;SDS011;2130;48.472;11.934;2024-03-23T02:18:15;9.13;;;1.97;;
4232;SDS011;2130;48.472;11.934;2024-03-23T02:20:42;7.00;;;1.83;;
4232;SDS011;2130;48.472;11.934;2024-03-23T02:23:14;6.20;;;1.97;;
4232;SDS011;2130;48.472;11.934;2024-03-23T02:25:42;6.40;;;2.07;;
4232;SDS011;2130;48.472;11.934;2024-03-23T02:28:10;6.70;;;1.70;;
4232;SDS011;2130;48.472;11.934;2024-03-23T02:30:37;11.00;;;2.47;;
4232;SDS011;2130;48.472;11.934;2024-03-23T02:33:05;6.10;;;1.30;;
4232;SDS011;2130;48.472;11.934;2024-03-23T02:35:32;6.40;;;1.90;;
4232;SDS011;2130;48.472;11.934;2024-03-23T02:38:01;6.33;;;1.53;;
4232;SDS011;2130;48.472;11.934;2024-03-23T02:40:29;9.03;;;1.53;;
4232;SDS011;2130;48.472;11.934;2024-03-23T02:42:57;5.80;;;1.57;;
4232;SDS011;2130;48.472;11.934;2024-03-23T02:45:24;5.83;;;1.57;;
4232;SDS011;2130;48.472;11.934;2024-03-23T02:47:52;6.00;;;1.53;;
4232;SDS011;2130;48.472;11.934;2024-03-23T02:50:20;5.43;;;1.70;;
4232;SDS011;2130;48.472;11.934;2024-03-23T02:52:48;6.27;;;1.60;;
4232;SDS011;2130;48.472;11.934;2024-03-23T02:55:17;7.00;;;1.70;;
4232;SDS011;2130;48.472;11.934;2024-03-23T02:57:46;7.70;;;2.10;;
4232;SDS011;2130;48.472;11.934;2024-03-23T03:00:13;6.60;;;1.60;;
4232;SDS011;2130;48.472;11.934;2024-03-23T03:02:42;5.83;;;1.63;;
4232;SDS011;2130;48.472;11.934;2024-03-23T03:05:09;6.03;;;1.80;;
4232;SDS011;2130;48.472;11.934;2024-03-23T03:07:39;5.30;;;1.40;;
4232;SDS011;2130;48.472;11.934;2024-03-23T03:10:07;5.67;;;1.60;;
4232;SDS011;2130;48.472;11.934;2024-03-23T03:12:37;6.30;;;1.40;;
4232;SDS011;2130;48.472;11.934;2024-03-23T03:15:08;5.87;;;1.40;;
4232;SDS011;2130;48.472;11.934;2024-03-23T03:17:36;6.00;;;1.80;;
4232;SDS011;2130;48.472;11.934;2024-03-23T03:20:05;6.10;;;1.67;;
4232;SDS011;2130;48.472;11.934;2024-03-23T03:22:39;6.20;;;1.57;;
4232;SDS011;2130;48.472;11.934;2024-03-23T03:25:06;6.87;;;1.80;;
4232;SDS011;2130;48.472;11.934;2024-03-23T03:27:35;8.97;;;2.20;;
4232;SDS011;2130;48.472;11.934;2024-03-23T03:30:02;7.07;;;1.77;;
4232;SDS011;2130;48.472;11.934;2024-03-23T03:32:33;6.33;;;1.60;;
4232;SDS011;2130;48.472;11.934;2024-03-23T03:35:00;7.23;;;1.97;;
4232;SDS011;2130;48.472;11.934;2024-03-23T03:37:29;5.90;;;1.50;;
4232;SDS011;2130;48.472;11.934;2024-03-23T03:39:57;6.30;;;1.60;;
4232;SDS011;2130;48.472;11.934;2024-03-23T03:42:24;6.87;;;1.47;;
4232;SDS011;2130;48.472;11.934;2024-03-23T03:44:52;7.20;;;1.73;;
4232;SDS011;2130;48.472;11.934;2024-03-23T03:47:20;7.40;;;1.60;;
4232;SDS011;2130;48.472;11.934;2024-03-23T03:49:50;5.90;;;1.60;;
4232;SDS011;2130;48.472;11.934;2024-03-23T03:52:17;10.80;;;1.90;;
4232;SDS011;2130;48.472;11.934;2024-03-23T03:54:45;6.73;;;2.00;;
4232;SDS011;2130;48.472;11.934;2024-03-23T03:57:12;8.13;;;2.00;;
4232;SDS011;2130;48.472;11.934;2024-03-23T03:59:41;6.17;;;1.67;;
4232;SDS011;2130;48.472;11.934;2024-03-23T04:02:08;11.60;;;1.87;;
4232;SDS011;2130;48.472;11.934;2024-03-23T04:04:36;7.73;;;1.80;;
4232;SDS011;2130;48.472;11.934;2024-03-23T04:07:04;8.10;;;1.70;;
4232;SDS011;2130;48.472;11.934;2024-03-23T04:09:32;8.40;;;1.80;;
4232;SDS011;2130;48.472;11.934;2024-03-23T04:12:01;7.80;;;2.27;;
4232;SDS011;2130;48.472;11.934;2024-03-23T04:14:30;7.53;;;1.73;;
4232;SDS011;2130;48.472;11.934;2024-03-23T04:16:57;7.63;;;1.37;;
4232;SDS011;2130;48.472;11.934;2024-03-23T04:19:25;7.33;;;1.87;;
4232;SDS011;2130;48.472;11.934;2024-03-23T04:21:52;6.67;;;1.77;;
4232;SDS011;2130;48.472;11.934;2024-03-23T04:24:22;6.03;;;1.53;;
4232;SDS011;2130;48.472;11.934;2024-03-23T04:26:50;5.70;;;1.40;;
4232;SDS011;2130;48.472;11.934;2024-03-23T04:29:18;10.57;;;1.50;;
4232;SDS011;2130;48.472;11.934;2024-03-23T04:31:45;6.63;;;1.80;;
4232;SDS011;2130;48.472;11.934;2024-03-23T04:34:13;5.90;;;1.23;;
4232;SDS011;2130;48.472;11.934;2024-03-23T04:36:40;6.10;;;1.77;;
4232;SDS011;2130;48.472;11.934;2024-03-23T04:39:08;5.90;;;1.47;;
4232;SDS011;2130;48.472;11.934;2024-03-23T04:41:38;6.40;;;1.57;;
4232;SDS011;2130;48.472;11.934;2024-03-23T04:44:07;5.73;;;1.37;;
4232;SDS011;2130;48.472;11.934;2024-03-23T04:46:35;10.80;;;2.00;;
4232;SDS011;2130;48.472;11.934;2024-03-23T04:49:03;6.23;;;1.77;;
4232;SDS011;2130;48.472;11.934;2024-03-23T04:51:35;10.33;;;1.47;;
4232;SDS011;2130;48.472;11.934;2024-03-23T04:54:04;5.80;;;1.63;;
4232;SDS011;2130;48.472;11.934;2024-03-23T04:56:31;5.67;;;1.40;;
4232;SDS011;2130;48.472;11.934;2024-03-23T04:59:00;7.23;;;1.83;;
4232;SDS011;2130;48.472;11.934;2024-03-23T05:01:33;6.47;;;1.60;;
4232;SDS011;2130;48.472;11.934;2024-03-23T05:04:03;6.00;;;1.50;;
4232;SDS011;2130;48.472;11.934;2024-03-23T05:06:31;6.27;;;1.70;;
4232;SDS011;2130;48.472;11.934;2024-03-23T05:08:58;6.27;;;1.73;;
4232;SDS011;2130;48.472;11.934;2024-03-23T05:11:27;6.70;;;1.77;;
4232;SDS011;2130;48.472;11.934;2024-03-23T05:13:54;5.90;;;1.50;;
4232;SDS011;2130;48.472;11.934;2024-03-23T05:16:24;6.33;;;1.87;;
4232;SDS011;2130;48.472;11.934;2024-03-23T05:18:52;6.30;;;1.63;;
4232;SDS011;2130;48.472;11.934;2024-03-23T05:21:21;5.80;;;1.40;;
4232;SDS011;2130;48.472;11.934;2024-03-23T05:23:48;6.80;;;1.67;;
4232;SDS011;2130;48.472;11.934;2024-03-23T05:26:17;5.53;;;1.53;;
4232;SDS011;2130;48.472;11.934;2024-03-23T05:28:44;5.80;;;1.40;;
4232;SDS011;2130;48.472;11.934;2024-03-23T05:31:13;6.53;;;1.57;;
4232;SDS011;2130;48.472;11.934;2024-03-23T05:33:51;6.20;;;1.77;;
4232;SDS011;2130;48.472;11.934;2024-03-23T05:36:19;5.90;;;1.50;;
4232;SDS011;2130;48.472;11.934;2024-03-23T05:38:47;5.87;;;1.40;;
4232;SDS011;2130;48.472;11.934;2024-03-23T05:41:15;6.40;;;1.90;;
4232;SDS011;2130;48.472;11.934;2024-03-23T05:43:43;7.20;;;1.80;;
4232;SDS011;2130;48.472;11.934;2024-03-23T05:46:12;6.83;;;1.40;;
4232;SDS011;2130;48.472;11.934;2024-03-23T05:48:39;6.17;;;1.60;;
4232;SDS011;2130;48.472;11.934;2024-03-23T05:51:09;6.33;;;1.40;;
4232;SDS011;2130;48.472;11.934;2024-03-23T05:53:38;7.23;;;1.73;;
4232;SDS011;2130;48.472;11.934;2024-03-23T05:56:07;7.57;;;1.60;;
4232;SDS011;2130;48.472;11.934;2024-03-23T05:58:34;6.33;;;1.63;;
4232;SDS011;2130;48.472;11.934;2024-03-23T06:01:02;5.93;;;1.40;;
4232;SDS011;2130;48.472;11.934;2024-03-23T06:03:29;5.33;;;1.30;;
4232;SDS011;2130;48.472;11.934;2024-03-23T06:05:59;10.73;;;1.60;;
4232;SDS011;2130;48.472;11.934;2024-03-23T06:08:28;5.93;;;1.20;;
4232;SDS011;2130;48.472;11.934;2024-03-23T06:10:58;6.30;;;1.47;;
4232;SDS011;2130;48.472;11.934;2024-03-23T06:13:25;5.90;;;1.80;;
4232;SDS011;2130;48.472;11.934;2024-03-23T06:15:56;5.80;;;1.60;;
4232;SDS011;2130;48.472;11.934;2024-03-23T06:18:23;6.60;;;1.30;;
4232;SDS011;2130;48.472;11.934;2024-03-23T06:20:51;6.67;;;1.70;;
4232;SDS011;2130;48.472;11.934;2024-03-23T06:23:18;6.27;;;1.80;;
4232;SDS011;2130;48.472;11.934;2024-03-23T06:25:48;5.00;;;1.13;;
4232;SDS011;2130;48.472;11.934;2024-03-23T06:28:17;5.83;;;1.53;;
4232;SDS011;2130;48.472;11.934;2024-03-23T06:31:08;5.80;;;1.67;;
4232;SDS011;2130;48.472;11.934;2024-03-23T06:33:37;5.80;;;1.47;;
4232;SDS011;2130;48.472;11.934;2024-03-23T06:36:05;7.03;;;1.90;;
4232;SDS011;2130;48.472;11.934;2024-03-23T06:38:33;5.77;;;1.40;;
4232;SDS011;2130;48.472;11.934;2024-03-23T06:41:04;5.47;;;1.53;;
4232;SDS011;2130;48.472;11.934;2024-03-23T06:43:32;6.87;;;1.60;;
4232;SDS011;2130;48.472;11.934;2024-03-23T06:46:00;5.63;;;1.50;;
4232;SDS011;2130;48.472;11.934;2024-03-23T06:48:30;5.90;;;1.83;;
4232;SDS011;2130;48.472;11.934;2024-03-23T06:50:57;6.20;;;1.90;;
4232;SDS011;2130;48.472;11.934;2024-03-23T06:53:25;6.17;;;1.90;;
4232;SDS011;2130;48.472;11.934;2024-03-23T06:55:53;5.70;;;1.40;;
4232;SDS011;2130;48.472;11.934;2024-03-23T06:58:24;6.53;;;1.63;;
4232;SDS011;2130;48.472;11.934;2024-03-23T07:00:54;6.13;;;1.20;;
4232;SDS011;2130;48.472;11.934;2024-03-23T07:03:22;4.83;;;1.20;;
4232;SDS011;2130;48.472;11.934;2024-03-23T07:05:50;5.40;;;1.40;;
4232;SDS011;2130;48.472;11.934;2024-03-23T07:08:18;5.87;;;1.40;;
4232;SDS011;2130;48.472;11.934;2024-03-23T07:10:48;5.73;;;1.10;;
4232;SDS011;2130;48.472;11.934;2024-03-23T07:13:19;4.80;;;1.27;;
4232;SDS011;2130;48.472;11.934;2024-03-23T07:15:54;4.57;;;1.13;;
4232;SDS011;2130;48.472;11.934;2024-03-23T07:18:22;4.60;;;1.17;;
4232;SDS011;2130;48.472;11.934;2024-03-23T07:20:53;7.27;;;1.63;;
4232;SDS011;2130;48.472;11.934;2024-03-23T07:23:20;5.60;;;1.57;;
4232;SDS011;2130;48.472;11.934;2024-03-23T07:25:57;4.97;;;1.27;;
4232;SDS011;2130;48.472;11.934;2024-03-23T07:28:26;4.67;;;1.27;;
4232;SDS011;2130;48.472;11.934;2024-03-23T07:31:03;4.37;;;1.17;;
4232;SDS011;2130;48.472;11.934;2024-03-23T07:33:31;5.10;;;1.23;;
4232;SDS011;2130;48.472;11.934;2024-03-23T07:36:00;5.33;;;1.10;;
4232;SDS011;2130;48.472;11.934;2024-03-23T07:38:27;5.37;;;1.53;;
4232;SDS011;2130;48.472;11.934;2024-03-23T07:41:04;5.47;;;1.30;;
4232;SDS011;2130;48.472;11.934;2024-03-23T07:43:34;4.37;;;0.97;;
4232;SDS011;2130;48.472;11.934;2024-03-23T07:46:02;4.20;;;1.20;;
4232;SDS011;2130;48.472;11.934;2024-03-23T07:48:30;5.13;;;1.20;;
4232;SDS011;2130;48.472;11.934;2024-03-23T07:50:59;4.00;;;1.00;;
4232;SDS011;2130;48.472;11.934;2024-03-23T07:53:27;4.13;;;1.07;;
4232;SDS011;2130;48.472;11.934;2024-03-23T07:55:56;4.30;;;1.10;;
4232;SDS011;2130;48.472;11.934;2024-03-23T07:58:24;5.70;;;1.17;;
4232;SDS011;2130;48.472;11.934;2024-03-23T08:00:53;4.90;;;1.00;;
4232;SDS011;2130;48.472;11.934;2024-03-23T08:03:20;5.10;;;1.30;;
4232;SDS011;2130;48.472;11.934;2024-03-23T08:05:49;4.17;;;1.10;;
4232;SDS011;2130;48.472;11.934;2024-03-23T08:08:16;5.90;;;1.50;;
4232;SDS011;2130;48.472;11.934;2024-03-23T08:10:47;5.27;;;1.70;;
4232;SDS011;2130;48.472;11.934;2024-03-23T08:13:14;5.30;;;1.33;;
4232;SDS011;2130;48.472;11.934;2024-03-23T08:15:42;5.10;;;1.67;;
4232;SDS011;2130;48.472;11.934;2024-03-23T08:18:11;7.90;;;1.53;;
4232;SDS011;2130;48.472;11.934;2024-03-23T08:20:39;5.50;;;1.50;;
4232;SDS011;2130;48.472;11.934;2024-03-23T08:23:06;5.70;;;1.47;;
4232;SDS011;2130;48.472;11.934;2024-03-23T08:25:34;7.70;;;1.70;;
4232;SDS011;2130;48.472;11.934;2024-03-23T08:28:01;6.57;;;1.90;;
4232;SDS011;2130;48.472;11.934;2024-03-23T08:30:29;6.10;;;1.90;;
4232;SDS011;2130;48.472;11.934;2024-03-23T08:32:56;4.30;;;1.27;;
4232;SDS011;2130;48.472;11.934;2024-03-23T08:35:26;5.57;;;1.60;;
4232;SDS011;2130;48.472;11.934;2024-03-23T08:37:53;6.30;;;1.93;;
4232;SDS011;2130;48.472;11.934;2024-03-23T08:40:21;5.03;;;1.47;;
4232;SDS011;2130;48.472;11.934;2024-03-23T08:42:48;6.97;;;1.43;;
4232;SDS011;2130;48.472;11.934;2024-03-23T08:45:16;5.00;;;1.70;;
4232;SDS011;2130;48.472;11.934;2024-03-23T08:47:43;4.63;;;1.43;;
4232;SDS011;2130;48.472;11.934;2024-03-23T08:50:12;6.90;;;1.60;;
4232;SDS011;2130;48.472;11.934;2024-03-23T08:52:41;5.00;;;1.60;;
4232;SDS011;2130;48.472;11.934;2024-03-23T08:55:09;6.63;;;1.50;;
4232;SDS011;2130;48.472;11.934;2024-03-23T08:57:35;5.93;;;1.50;;
4232;SDS011;2130;48.472;11.934;2024-03-23T09:00:04;5.10;;;1.40;;
4232;SDS011;2130;48.472;11.934;2024-03-23T09:02:34;5.20;;;1.10;;
4232;SDS011;2130;48.472;11.934;2024-03-23T09:05:02;6.03;;;1.27;;
4232;SDS011;2130;48.472;11.934;2024-03-23T09:07:30;4.40;;;1.20;;
4232;SDS011;2130;48.472;11.934;2024-03-23T09:10:00;4.47;;;1.17;;
4232;SDS011;2130;48.472;11.934;2024-03-23T09:12:27;4.50;;;1.30;;
4232;SDS011;2130;48.472;11.934;2024-03-23T09:14:55;5.30;;;1.27;;
4232;SDS011;2130;48.472;11.934;2024-03-23T09:17:22;4.50;;;1.17;;
4232;SDS011;2130;48.472;11.934;2024-03-23T09:19:51;4.83;;;1.23;;
4232;SDS011;2130;48.472;11.934;2024-03-23T09:22:18;4.67;;;1.10;;
4232;SDS011;2130;48.472;11.934;2024-03-23T09:24:46;4.90;;;1.30;;
4232;SDS011;2130;48.472;11.934;2024-03-23T09:27:15;5.23;;;1.10;;
4232;SDS011;2130;48.472;11.934;2024-03-23T09:29:43;4.50;;;1.00;;
4232;SDS011;2130;48.472;11.934;2024-03-23T09:32:11;4.20;;;1.00;;
4232;SDS011;2130;48.472;11.934;2024-03-23T09:34:39;5.30;;;1.60;;
4232;SDS011;2130;48.472;11.934;2024-03-23T09:37:06;4.10;;;1.30;;
4232;SDS011;2130;48.472;11.934;2024-03-23T09:39:34;5.03;;;1.30;;
4232;SDS011;2130;48.472;11.934;2024-03-23T09:42:01;5.20;;;1.40;;
4232;SDS011;2130;48.472;11.934;2024-03-23T09:44:30;5.00;;;1.50;;
4232;SDS011;2130;48.472;11.934;2024-03-23T09:46:57;4.90;;;1.57;;
4232;SDS011;2130;48.472;11.934;2024-03-23T09:49:26;4.80;;;1.30;;
4232;SDS011;2130;48.472;11.934;2024-03-23T09:51:53;5.10;;;1.30;;
4232;SDS011;2130;48.472;11.934;2024-03-23T09:54:22;5.23;;;1.80;;
4232;SDS011;2130;48.472;11.934;2024-03-23T09:56:49;5.47;;;1.60;;
4232;SDS011;2130;48.472;11.934;2024-03-23T09:59:18;5.00;;;1.37;;
4232;SDS011;2130;48.472;11.934;2024-03-23T10:01:46;4.50;;;1.20;;
4232;SDS011;2130;48.472;11.934;2024-03-23T10:07:10;4.50;;;1.00;;
4232;SDS011;2130;48.472;11.934;2024-03-23T10:09:40;5.07;;;1.30;;
4232;SDS011;2130;48.472;11.934;2024-03-23T10:12:08;4.07;;;0.90;;
4232;SDS011;2130;48.472;11.934;2024-03-23T10:14:36;3.97;;;1.17;;
4232;SDS011;2130;48.472;11.934;2024-03-23T10:17:15;4.50;;;1.20;;
4232;SDS011;2130;48.472;11.934;2024-03-23T10:19:46;4.10;;;1.00;;
4232;SDS011;2130;48.472;11.934;2024-03-23T10:22:16;5.97;;;1.63;;
4232;SDS011;2130;48.472;11.934;2024-03-23T10:24:45;3.70;;;0.90;;
4232;SDS011;2130;48.472;11.934;2024-03-23T10:27:14;4.30;;;1.30;;
4232;SDS011;2130;48.472;11.934;2024-03-23T10:29:43;3.47;;;0.87;;
4232;SDS011;2130;48.472;11.934;2024-03-23T10:32:11;5.97;;;1.37;;
4232;SDS011;2130;48.472;11.934;2024-03-23T10:34:42;4.63;;;0.90;;
4232;SDS011;2130;48.472;11.934;2024-03-23T10:37:09;4.37;;;1.00;;
4232;SDS011;2130;48.472;11.934;2024-03-23T10:39:40;5.80;;;1.40;;
4232;SDS011;2130;48.472;11.934;2024-03-23T10:42:08;4.27;;;0.93;;
4232;SDS011;2130;48.472;11.934;2024-03-23T10:44:37;6.00;;;1.47;;
4232;SDS011;2130;48.472;11.934;2024-03-23T10:47:05;4.13;;;0.90;;
4232;SDS011;2130;48.472;11.934;2024-03-23T10:49:37;5.50;;;1.10;;
4232;SDS011;2130;48.472;11.934;2024-03-23T10:52:05;5.30;;;1.23;;
4232;SDS011;2130;48.472;11.934;2024-03-23T10:54:34;4.73;;;1.33;;
4232;SDS011;2130;48.472;11.934;2024-03-23T10:57:03;4.40;;;0.90;;
4232;SDS011;2130;48.472;11.934;2024-03-23T10:59:34;4.43;;;1.00;;
4232;SDS011;2130;48.472;11.934;2024-03-23T11:02:04;5.73;;;1.37;;
4232;SDS011;2130;48.472;11.934;2024-03-23T11:04:36;4.73;;;1.27;;
4232;SDS011;2130;48.472;11.934;2024-03-23T11:07:11;5.40;;;1.30;;
4232;SDS011;2130;48.472;11.934;2024-03-23T11:09:57;5.03;;;1.00;;
4232;SDS011;2130;48.472;11.934;2024-03-23T11:12:28;4.73;;;1.17;;
4232;SDS011;2130;48.472;11.934;2024-03-23T11:15:02;4.20;;;1.00;;
4232;SDS011;2130;48.472;11.934;2024-03-23T11:17:30;4.53;;;1.00;;
4232;SDS011;2130;48.472;11.934;2024-03-23T11:20:01;5.50;;;1.00;;
4232;SDS011;2130;48.472;11.934;2024-03-23T11:22:39;4.67;;;1.00;;
4232;SDS011;2130;48.472;11.934;2024-03-23T11:25:14;4.10;;;0.90;;
4232;SDS011;2130;48.472;11.934;2024-03-23T11:27:42;4.40;;;0.80;;
4232;SDS011;2130;48.472;11.934;2024-03-23T11:30:12;5.40;;;1.00;;
4232;SDS011;2130;48.472;11.934;2024-03-23T11:32:41;4.43;;;0.90;;
4232;SDS011;2130;48.472;11.934;2024-03-23T11:35:11;4.17;;;0.80;;
4232;SDS011;2130;48.472;11.934;2024-03-23T11:38:02;4.50;;;0.77;;
4232;SDS011;2130;48.472;11.934;2024-03-23T11:40:31;4.60;;;0.80;;
4232;SDS011;2130;48.472;11.934;2024-03-23T11:42:59;4.87;;;0.87;;
4232;SDS011;2130;48.472;11.934;2024-03-23T11:45:27;5.50;;;1.10;;
4232;SDS011;2130;48.472;11.934;2024-03-23T11:48:01;4.53;;;0.90;;
4232;SDS011;2130;48.472;11.934;2024-03-23T11:50:36;5.50;;;1.10;;
4232;SDS011;2130;48.472;11.934;2024-03-23T11:53:08;4.63;;;0.90;;
4232;SDS011;2130;48.472;11.934;2024-03-23T11:55:41;5.07;;;0.90;;
4232;SDS011;2130;48.472;11.934;2024-03-23T11:58:09;5.00;;;1.00;;
4232;SDS011;2130;48.472;11.934;2024-03-23T12:00:38;5.13;;;1.10;;
4232;SDS011;2130;48.472;11.934;2024-03-23T12:03:05;5.17;;;1.20;;
4232;SDS011;2130;48.472;11.934;2024-03-23T12:05:38;5.90;;;1.33;;
4232;SDS011;2130;48.472;11.934;2024-03-23T12:08:29;5.23;;;1.03;;
4232;SDS011;2130;48.472;11.934;2024-03-23T12:11:05;4.53;;;0.90;;
4232;SDS011;2130;48.472;11.934;2024-03-23T12:13:35;4.77;;;1.00;;
4232;SDS011;2130;48.472;11.934;2024-03-23T12:16:09;5.20;;;1.20;;
4232;SDS011;2130;48.472;11.934;2024-03-23T12:18:36;5.90;;;1.37;;
4232;SDS011;2130;48.472;11.934;2024-03-23T12:21:07;5.00;;;1.10;;
4232;SDS011;2130;48.472;11.934;2024-03-23T12:23:34;5.37;;;1.00;;
4232;SDS011;2130;48.472;11.934;2024-03-23T12:26:02;5.13;;;1.10;;
4232;SDS011;2130;48.472;11.934;2024-03-23T12:28:30;4.27;;;0.93;;
4232;SDS011;2130;48.472;11.934;2024-03-23T12:30:59;4.60;;;0.90;;
4232;SDS011;2130;48.472;11.934;2024-03-23T12:33:25;4.87;;;0.80;;
4232;SDS011;2130;48.472;11.934;2024-03-23T12:35:54;5.50;;;1.20;;
4232;SDS011;2130;48.472;11.934;2024-03-23T12:38:22;4.90;;;0.80;;
4232;SDS011;2130;48.472;11.934;2024-03-23T12:40:50;4.47;;;0.90;;
4232;SDS011;2130;48.472;11.934;2024-03-23T12:43:17;4.63;;;0.97;;
4232;SDS011;2130;48.472;11.934;2024-03-23T12:45:45;5.40;;;0.90;;
4232;SDS011;2130;48.472;11.934;2024-03-23T12:48:13;4.80;;;1.17;;
4232;SDS011;2130;48.472;11.934;2024-03-23T12:50:41;5.67;;;1.03;;
4232;SDS011;2130;48.472;11.934;2024-03-23T12:53:10;4.83;;;0.90;;
4232;SDS011;2130;48.472;11.934;2024-03-23T12:55:40;4.10;;;0.90;;
4232;SDS011;2130;48.472;11.934;2024-03-23T12:58:07;5.03;;;1.10;;
4232;SDS011;2130;48.472;11.934;2024-03-23T13:00:35;6.00;;;0.90;;
4232;SDS011;2130;48.472;11.934;2024-03-23T13:03:02;6.33;;;1.00;;
4232;SDS011;2130;48.472;11.934;2024-03-23T13:05:30;7.40;;;1.60;;
4232;SDS011;2130;48.472;11.934;2024-03-23T13:07:57;6.13;;;1.40;;
4232;SDS011;2130;48.472;11.934;2024-03-23T13:10:25;5.40;;;1.00;;
4232;SDS011;2130;48.472;11.934;2024-03-23T13:12:54;5.40;;;1.30;;
4232;SDS011;2130;48.472;11.934;2024-03-23T13:15:25;5.00;;;1.00;;
4232;SDS011;2130;48.472;11.934;2024-03-23T13:17:52;5.17;;;1.00;;
4232;SDS011;2130;48.472;11.934;2024-03-23T13:20:22;4.70;;;0.87;;
4232;SDS011;2130;48.472;11.934;2024-03-23T13:22:50;5.93;;;1.17;;
4232;SDS011;2130;48.472;11.934;2024-03-23T13:25:18;6.10;;;1.03;;
4232;SDS011;2130;48.472;11.934;2024-03-23T13:27:46;5.23;;;0.90;;
4232;SDS011;2130;48.472;11.934;2024-03-23T13:30:16;8.53;;;1.40;;
4232;SDS011;2130;48.472;11.934;2024-03-23T13:32:43;5.43;;;1.23;;
4232;SDS011;2130;48.472;11.934;2024-03-23T13:35:11;4.93;;;1.03;;
4232;SDS011;2130;48.472;11.934;2024-03-23T13:37:39;6.40;;;1.40;;
4232;SDS011;2130;48.472;11.934;2024-03-23T13:40:08;6.40;;;1.30;;
4232;SDS011;2130;48.472;11.934;2024-03-23T13:42:38;5.50;;;1.10;;
4232;SDS011;2130;48.472;11.934;2024-03-23T13:45:05;4.97;;;1.23;;
4232;SDS011;2130;48.472;11.934;2024-03-23T13:47:44;5.40;;;1.17;;
4232;SDS011;2130;48.472;11.934;2024-03-23T13:50:12;5.50;;;1.10;;
4232;SDS011;2130;48.472;11.934;2024-03-23T13:52:40;7.03;;;1.10;;
4232;SDS011;2130;48.472;11.934;2024-03-23T13:55:08;5.53;;;1.00;;
4232;SDS011;2130;48.472;11.934;2024-03-23T13:57:39;5.40;;;1.00;;
4232;SDS011;2130;48.472;11.934;2024-03-23T14:00:07;5.13;;;1.00;;
4232;SDS011;2130;48.472;11.934;2024-03-23T14:02:38;6.30;;;1.33;;
4232;SDS011;2130;48.472;11.934;2024-03-23T14:05:07;5.43;;;1.17;;
4232;SDS011;2130;48.472;11.934;2024-03-23T14:07:35;6.13;;;1.33;;
4232;SDS011;2130;48.472;11.934;2024-03-23T14:10:02;6.23;;;1.20;;
4232;SDS011;2130;48.472;11.934;2024-03-23T14:12:32;7.17;;;1.30;;
4232;SDS011;2130;48.472;11.934;2024-03-23T14:14:59;6.33;;;1.37;;
4232;SDS011;2130;48.472;11.934;2024-03-23T14:17:28;5.93;;;1.30;;
4232;SDS011;2130;48.472;11.934;2024-03-23T14:19:55;6.37;;;1.80;;
4232;SDS011;2130;48.472;11.934;2024-03-23T14:22:28;5.90;;;1.27;;
4232;SDS011;2130;48.472;11.934;2024-03-23T14:24:55;6.13;;;1.33;;
4232;SDS011;2130;48.472;11.934;2024-03-23T14:27:25;6.90;;;1.30;;
4232;SDS011;2130;48.472;11.934;2024-03-23T14:29:51;7.10;;;1.40;;
4232;SDS011;2130;48.472;11.934;2024-03-23T14:32:20;5.87;;;1.13;;
4232;SDS011;2130;48.472;11.934;2024-03-23T14:34:47;6.00;;;1.13;;
4232;SDS011;2130;48.472;11.934;2024-03-23T14:37:16;6.23;;;1.37;;
4232;SDS011;2130;48.472;11.934;2024-03-23T14:39:44;6.47;;;1.10;;
4232;SDS011;2130;48.472;11.934;2024-03-23T14:42:13;5.67;;;1.00;;
4232;SDS011;2130;48.472;11.934;2024-03-23T14:44:40;6.47;;;1.40;;
4232;SDS011;2130;48.472;11.934;2024-03-23T14:47:08;5.60;;;1.13;;
4232;SDS011;2130;48.472;11.934;2024-03-23T14:49:36;5.30;;;0.93;;
4232;SDS011;2130;48.472;11.934;2024-03-23T14:52:04;5.40;;;1.00;;
4232;SDS011;2130;48.472;11.934;2024-03-23T14:54:33;5.83;;;1.00;;
4232;SDS011;2130;48.472;11.934;2024-03-23T14:57:03;6.60;;;1.47;;
4232;SDS011;2130;48.472;11.934;2024-03-23T14:59:30;7.33;;;1.30;;
4232;SDS011;2130;48.472;11.934;2024-03-23T15:01:58;8.20;;;1.50;;
4232;SDS011;2130;48.472;11.934;2024-03-23T15:04:25;6.73;;;1.53;;
4232;SDS011;2130;48.472;11.934;2024-03-23T15:06:53;7.87;;;1.40;;
4232;SDS011;2130;48.472;11.934;2024-03-23T15:09:20;6.63;;;1.17;;
4232;SDS011;2130;48.472;11.934;2024-03-23T15:11:48;5.67;;;1.10;;
4232;SDS011;2130;48.472;11.934;2024-03-23T15:14:17;6.10;;;1.40;;
4232;SDS011;2130;48.472;11.934;2024-03-23T15:16:46;6.33;;;1.63;;
4232;SDS011;2130;48.472;11.934;2024-03-23T15:19:15;11.10;;;1.70;;
4232;SDS011;2130;48.472;11.934;2024-03-23T15:21:43;11.43;;;2.10;;
4232;SDS011;2130;48.472;11.934;2024-03-23T15:24:10;8.50;;;1.50;;
4232;SDS011;2130;48.472;11.934;2024-03-23T15:26:38;9.77;;;1.40;;
4232;SDS011;2130;48.472;11.934;2024-03-23T15:29:06;6.20;;;1.20;;
4232;SDS011;2130;48.472;11.934;2024-03-23T15:31:42;6.90;;;1.10;;
4232;SDS011;2130;48.472;11.934;2024-03-23T15:34:10;5.63;;;1.00;;
4232;SDS011;2130;48.472;11.934;2024-03-23T15:36:38;5.90;;;1.00;;
4232;SDS011;2130;48.472;11.934;2024-03-23T15:39:04;5.67;;;1.07;;
4232;SDS011;2130;48.472;11.934;2024-03-23T15:41:33;5.43;;;0.97;;
4232;SDS011;2130;48.472;11.934;2024-03-23T15:44:01;7.23;;;1.33;;
4232;SDS011;2130;48.472;11.934;2024-03-23T15:46:30;6.13;;;1.27;;
4232;SDS011;2130;48.472;11.934;2024-03-23T15:48:58;5.30;;;1.07;;
4232;SDS011;2130;48.472;11.934;2024-03-23T15:51:26;6.13;;;1.33;;
4232;SDS011;2130;48.472;11.934;2024-03-23T15:53:58;6.27;;;1.20;;
4232;SDS011;2130;48.472;11.934;2024-03-23T15:56:28;6.57;;;1.30;;
4232;SDS011;2130;48.472;11.934;2024-03-23T15:58:56;5.50;;;0.90;;
4232;SDS011;2130;48.472;11.934;2024-03-23T16:01:31;6.10;;;1.10;;
4232;SDS011;2130;48.472;11.934;2024-03-23T16:04:01;5.77;;;1.17;;
4232;SDS011;2130;48.472;11.934;2024-03-23T16:06:30;13.00;;;1.30;;